sensor_id;sensor_type;location;lat;lon;timestamp;pressure;altitude;pressure_sealevel;temperature;humidity
62632;BME280;48703;51.248;-0.546;2023-07-09T00:00:48;101105;;;19.07;81.74
62632;BME280;48703;51.248;-0.546;2023-07-09T00:03:50;101106;;;19.06;82.86
62632;BME280;48703;51.248;-0.546;2023-07-09T00:06:52;101107;;;19.02;82.82
62632;BME280;48703;51.248;-0.546;2023-07-09T00:09:54;101105;;;18.99;82.38
62632;BME280;48703;51.248;-0.546;2023-07-09T00:12:56;101101;;;18.96;82.49
62632;BME280;48703;51.248;-0.546;2023-07-09T00:15:58;101097;;;18.95;82.64
62632;BME280;48703;51.248;-0.546;2023-07-09T00:18:59;101102;;;18.93;83.09
62632;BME280;48703;51.248;-0.546;2023-07-09T00:22:01;101110;;;18.89;83.71
62632;BME280;48703;51.248;-0.546;2023-07-09T00:25:03;101109;;;18.83;83.86
62632;BME280;48703;51.248;-0.546;2023-07-09T00:28:05;101115;;;18.81;83.99
62632;BME280;48703;51.248;-0.546;2023-07-09T00:31:07;101114;;;18.79;84.00
62632;BME280;48703;51.248;-0.546;2023-07-09T00:34:09;101114;;;18.76;83.94
62632;BME280;48703;51.248;-0.546;2023-07-09T00:37:11;101112;;;18.74;83.15
62632;BME280;48703;51.248;-0.546;2023-07-09T00:40:14;101109;;;18.71;84.30
62632;BME280;48703;51.248;-0.546;2023-07-09T00:43:15;101117;;;18.70;83.34
62632;BME280;48703;51.248;-0.546;2023-07-09T00:47:06;101114;;;18.69;83.18
62632;BME280;48703;51.248;-0.546;2023-07-09T00:49:24;101111;;;18.67;83.59
62632;BME280;48703;51.248;-0.546;2023-07-09T00:52:22;101119;;;18.64;84.13
62632;BME280;48703;51.248;-0.546;2023-07-09T00:55:22;101119;;;18.62;83.33
62632;BME280;48703;51.248;-0.546;2023-07-09T00:58:24;101122;;;18.61;83.07
62632;BME280;48703;51.248;-0.546;2023-07-09T01:01:26;101131;;;18.61;83.20
62632;BME280;48703;51.248;-0.546;2023-07-09T01:04:27;101135;;;18.60;83.48
62632;BME280;48703;51.248;-0.546;2023-07-09T01:07:29;101140;;;18.57;83.88
62632;BME280;48703;51.248;-0.546;2023-07-09T01:10:31;101142;;;18.56;83.37
62632;BME280;48703;51.248;-0.546;2023-07-09T01:13:33;101143;;;18.54;83.14
62632;BME280;48703;51.248;-0.546;2023-07-09T01:16:35;101143;;;18.54;83.01
62632;BME280;48703;51.248;-0.546;2023-07-09T01:19:38;101146;;;18.50;82.86
62632;BME280;48703;51.248;-0.546;2023-07-09T01:22:39;101148;;;18.49;83.47
62632;BME280;48703;51.248;-0.546;2023-07-09T01:25:42;101147;;;18.44;83.42
62632;BME280;48703;51.248;-0.546;2023-07-09T01:28:43;101148;;;18.41;83.19
62632;BME280;48703;51.248;-0.546;2023-07-09T01:31:44;101149;;;18.39;82.58
62632;BME280;48703;51.248;-0.546;2023-07-09T01:34:47;101153;;;18.38;83.16
62632;BME280;48703;51.248;-0.546;2023-07-09T01:37:48;101156;;;18.35;82.42
62632;BME280;48703;51.248;-0.546;2023-07-09T01:40:50;101158;;;18.32;82.46
62632;BME280;48703;51.248;-0.546;2023-07-09T01:43:52;101159;;;18.31;82.27
62632;BME280;48703;51.248;-0.546;2023-07-09T01:46:54;101159;;;18.30;81.73
62632;BME280;48703;51.248;-0.546;2023-07-09T01:49:55;101163;;;18.27;81.98
62632;BME280;48703;51.248;-0.546;2023-07-09T01:52:57;101163;;;18.22;81.46
62632;BME280;48703;51.248;-0.546;2023-07-09T01:55:59;101165;;;18.18;81.69
62632;BME280;48703;51.248;-0.546;2023-07-09T01:59:01;101169;;;18.14;81.90
62632;BME280;48703;51.248;-0.546;2023-07-09T02:02:03;101166;;;18.06;81.85
62632;BME280;48703;51.248;-0.546;2023-07-09T02:05:05;101168;;;18.03;81.54
62632;BME280;48703;51.248;-0.546;2023-07-09T02:08:07;101164;;;17.95;81.86
62632;BME280;48703;51.248;-0.546;2023-07-09T02:11:09;101160;;;17.93;81.15
62632;BME280;48703;51.248;-0.546;2023-07-09T02:14:10;101170;;;17.87;81.26
62632;BME280;48703;51.248;-0.546;2023-07-09T02:17:13;101172;;;17.81;81.43
62632;BME280;48703;51.248;-0.546;2023-07-09T02:20:14;101170;;;17.78;81.61
62632;BME280;48703;51.248;-0.546;2023-07-09T02:23:16;101168;;;17.76;81.38
62632;BME280;48703;51.248;-0.546;2023-07-09T02:26:18;101162;;;17.69;81.35
62632;BME280;48703;51.248;-0.546;2023-07-09T02:29:20;101169;;;17.62;80.94
62632;BME280;48703;51.248;-0.546;2023-07-09T02:32:22;101175;;;17.58;81.36
62632;BME280;48703;51.248;-0.546;2023-07-09T02:35:24;101174;;;17.56;81.48
62632;BME280;48703;51.248;-0.546;2023-07-09T02:38:25;101165;;;17.54;81.17
62632;BME280;48703;51.248;-0.546;2023-07-09T02:41:27;101157;;;17.51;81.55
62632;BME280;48703;51.248;-0.546;2023-07-09T02:44:29;101164;;;17.44;81.51
62632;BME280;48703;51.248;-0.546;2023-07-09T02:47:31;101161;;;17.40;82.03
62632;BME280;48703;51.248;-0.546;2023-07-09T02:50:33;101157;;;17.39;81.85
62632;BME280;48703;51.248;-0.546;2023-07-09T02:53:35;101148;;;17.38;82.16
62632;BME280;48703;51.248;-0.546;2023-07-09T02:56:37;101146;;;17.33;82.16
62632;BME280;48703;51.248;-0.546;2023-07-09T02:59:39;101149;;;17.32;82.46
62632;BME280;48703;51.248;-0.546;2023-07-09T03:02:40;101135;;;17.31;82.28
62632;BME280;48703;51.248;-0.546;2023-07-09T03:05:44;101139;;;17.31;81.44
62632;BME280;48703;51.248;-0.546;2023-07-09T03:08:44;101146;;;17.30;82.23
62632;BME280;48703;51.248;-0.546;2023-07-09T03:11:46;101155;;;17.25;82.81
62632;BME280;48703;51.248;-0.546;2023-07-09T03:14:48;101152;;;17.19;82.57
62632;BME280;48703;51.248;-0.546;2023-07-09T03:17:50;101153;;;17.21;82.52
62632;BME280;48703;51.248;-0.546;2023-07-09T03:20:52;101143;;;17.21;82.39
62632;BME280;48703;51.248;-0.546;2023-07-09T03:23:54;101146;;;17.22;81.82
62632;BME280;48703;51.248;-0.546;2023-07-09T03:26:56;101159;;;17.22;82.23
62632;BME280;48703;51.248;-0.546;2023-07-09T03:29:57;101172;;;17.20;81.86
62632;BME280;48703;51.248;-0.546;2023-07-09T03:32:59;101170;;;17.17;81.70
62632;BME280;48703;51.248;-0.546;2023-07-09T03:36:01;101171;;;17.15;82.47
62632;BME280;48703;51.248;-0.546;2023-07-09T03:39:03;101172;;;17.08;82.72
62632;BME280;48703;51.248;-0.546;2023-07-09T03:42:05;101172;;;17.08;82.72
62632;BME280;48703;51.248;-0.546;2023-07-09T03:45:07;101170;;;17.08;82.74
62632;BME280;48703;51.248;-0.546;2023-07-09T03:48:08;101144;;;17.04;83.35
62632;BME280;48703;51.248;-0.546;2023-07-09T03:51:10;101147;;;17.02;82.69
62632;BME280;48703;51.248;-0.546;2023-07-09T03:54:12;101150;;;17.01;83.21
62632;BME280;48703;51.248;-0.546;2023-07-09T03:57:14;101165;;;17.03;83.47
62632;BME280;48703;51.248;-0.546;2023-07-09T04:00:16;101176;;;17.05;83.69
62632;BME280;48703;51.248;-0.546;2023-07-09T04:03:18;101175;;;17.04;83.29
62632;BME280;48703;51.248;-0.546;2023-07-09T04:06:20;101159;;;17.04;82.96
62632;BME280;48703;51.248;-0.546;2023-07-09T04:09:22;101168;;;17.03;83.60
62632;BME280;48703;51.248;-0.546;2023-07-09T04:12:23;101180;;;17.04;83.23
62632;BME280;48703;51.248;-0.546;2023-07-09T04:15:26;101156;;;17.03;83.23
62632;BME280;48703;51.248;-0.546;2023-07-09T04:18:27;101183;;;17.04;84.49
62632;BME280;48703;51.248;-0.546;2023-07-09T04:21:29;101201;;;17.02;84.49
62632;BME280;48703;51.248;-0.546;2023-07-09T04:24:31;101196;;;17.02;84.85
62632;BME280;48703;51.248;-0.546;2023-07-09T04:27:33;101203;;;17.00;83.23
62632;BME280;48703;51.248;-0.546;2023-07-09T04:30:35;101195;;;17.02;83.23
62632;BME280;48703;51.248;-0.546;2023-07-09T04:33:37;101198;;;17.02;83.38
62632;BME280;48703;51.248;-0.546;2023-07-09T04:36:39;101197;;;17.02;83.52
62632;BME280;48703;51.248;-0.546;2023-07-09T04:39:40;101195;;;17.04;83.67
62632;BME280;48703;51.248;-0.546;2023-07-09T04:42:42;101190;;;17.02;84.74
62632;BME280;48703;51.248;-0.546;2023-07-09T04:45:44;101188;;;16.97;83.92
62632;BME280;48703;51.248;-0.546;2023-07-09T04:48:46;101196;;;16.98;83.76
62632;BME280;48703;51.248;-0.546;2023-07-09T04:51:48;101202;;;17.01;85.18
62632;BME280;48703;51.248;-0.546;2023-07-09T04:54:50;101212;;;16.97;85.42
62632;BME280;48703;51.248;-0.546;2023-07-09T04:57:51;101216;;;16.96;85.73
62632;BME280;48703;51.248;-0.546;2023-07-09T05:00:56;101221;;;16.99;86.14
62632;BME280;48703;51.248;-0.546;2023-07-09T05:03:55;101219;;;17.00;86.44
62632;BME280;48703;51.248;-0.546;2023-07-09T05:06:57;101214;;;17.01;85.34
62632;BME280;48703;51.248;-0.546;2023-07-09T05:09:59;101215;;;17.02;84.57
62632;BME280;48703;51.248;-0.546;2023-07-09T05:13:01;101222;;;17.05;84.04
62632;BME280;48703;51.248;-0.546;2023-07-09T05:16:03;101220;;;17.08;83.72
62632;BME280;48703;51.248;-0.546;2023-07-09T05:19:06;101218;;;17.12;83.46
62632;BME280;48703;51.248;-0.546;2023-07-09T05:22:06;101218;;;17.14;84.18
62632;BME280;48703;51.248;-0.546;2023-07-09T05:25:08;101216;;;17.14;84.52
62632;BME280;48703;51.248;-0.546;2023-07-09T05:28:10;101218;;;17.13;83.96
62632;BME280;48703;51.248;-0.546;2023-07-09T05:31:12;101230;;;17.12;83.84
62632;BME280;48703;51.248;-0.546;2023-07-09T05:34:14;101230;;;17.12;83.56
62632;BME280;48703;51.248;-0.546;2023-07-09T05:37:16;101232;;;17.14;84.32
62632;BME280;48703;51.248;-0.546;2023-07-09T05:40:18;101236;;;17.10;83.44
62632;BME280;48703;51.248;-0.546;2023-07-09T05:43:20;101226;;;17.07;84.35
62632;BME280;48703;51.248;-0.546;2023-07-09T05:46:22;101219;;;17.06;84.29
62632;BME280;48703;51.248;-0.546;2023-07-09T05:49:23;101219;;;17.08;85.30
62632;BME280;48703;51.248;-0.546;2023-07-09T05:52:25;101219;;;17.07;84.74
62632;BME280;48703;51.248;-0.546;2023-07-09T05:55:27;101217;;;17.07;84.02
62632;BME280;48703;51.248;-0.546;2023-07-09T05:58:29;101227;;;17.08;84.25
62632;BME280;48703;51.248;-0.546;2023-07-09T06:01:31;101236;;;17.10;85.26
62632;BME280;48703;51.248;-0.546;2023-07-09T06:04:33;101231;;;17.08;84.33
62632;BME280;48703;51.248;-0.546;2023-07-09T06:07:35;101235;;;17.08;83.91
62632;BME280;48703;51.248;-0.546;2023-07-09T06:10:36;101243;;;17.09;83.42
62632;BME280;48703;51.248;-0.546;2023-07-09T06:13:38;101246;;;17.10;84.11
62632;BME280;48703;51.248;-0.546;2023-07-09T06:16:40;101239;;;17.12;83.64
62632;BME280;48703;51.248;-0.546;2023-07-09T06:19:42;101236;;;17.13;83.02
62632;BME280;48703;51.248;-0.546;2023-07-09T06:22:44;101242;;;17.16;83.53
62632;BME280;48703;51.248;-0.546;2023-07-09T06:25:46;101245;;;17.18;82.29
62632;BME280;48703;51.248;-0.546;2023-07-09T06:28:48;101253;;;17.22;84.02
62632;BME280;48703;51.248;-0.546;2023-07-09T06:31:50;101251;;;17.24;83.11
62632;BME280;48703;51.248;-0.546;2023-07-09T06:34:51;101250;;;17.26;82.13
62632;BME280;48703;51.248;-0.546;2023-07-09T06:37:53;101247;;;17.28;82.46
62632;BME280;48703;51.248;-0.546;2023-07-09T06:40:55;101247;;;17.31;82.02
62632;BME280;48703;51.248;-0.546;2023-07-09T06:43:57;101255;;;17.33;81.70
62632;BME280;48703;51.248;-0.546;2023-07-09T06:46:59;101251;;;17.34;81.40
62632;BME280;48703;51.248;-0.546;2023-07-09T06:50:01;101264;;;17.36;81.67
62632;BME280;48703;51.248;-0.546;2023-07-09T06:53:03;101272;;;17.39;82.62
62632;BME280;48703;51.248;-0.546;2023-07-09T06:56:05;101268;;;17.40;81.47
62632;BME280;48703;51.248;-0.546;2023-07-09T06:59:06;101278;;;17.39;81.64
62632;BME280;48703;51.248;-0.546;2023-07-09T07:02:08;101300;;;17.39;81.89
62632;BME280;48703;51.248;-0.546;2023-07-09T07:05:10;101318;;;17.39;82.17
62632;BME280;48703;51.248;-0.546;2023-07-09T07:08:13;101324;;;17.40;82.28
62632;BME280;48703;51.248;-0.546;2023-07-09T07:11:14;101313;;;17.42;82.34
62632;BME280;48703;51.248;-0.546;2023-07-09T07:14:16;101302;;;17.41;82.04
62632;BME280;48703;51.248;-0.546;2023-07-09T07:17:18;101299;;;17.44;83.21
62632;BME280;48703;51.248;-0.546;2023-07-09T07:20:19;101300;;;17.46;82.67
62632;BME280;48703;51.248;-0.546;2023-07-09T07:23:22;101291;;;17.49;82.53
62632;BME280;48703;51.248;-0.546;2023-07-09T07:26:23;101293;;;17.52;82.90
62632;BME280;48703;51.248;-0.546;2023-07-09T07:29:25;101297;;;17.57;82.96
62632;BME280;48703;51.248;-0.546;2023-07-09T07:32:27;101296;;;17.63;83.25
62632;BME280;48703;51.248;-0.546;2023-07-09T07:35:29;101270;;;17.69;82.93
62632;BME280;48703;51.248;-0.546;2023-07-09T07:38:31;101275;;;17.75;81.45
62632;BME280;48703;51.248;-0.546;2023-07-09T07:41:33;101283;;;17.83;81.06
62632;BME280;48703;51.248;-0.546;2023-07-09T07:44:34;101282;;;17.91;80.38
62632;BME280;48703;51.248;-0.546;2023-07-09T07:47:36;101288;;;17.98;79.83
62632;BME280;48703;51.248;-0.546;2023-07-09T07:50:38;101303;;;18.07;79.70
62632;BME280;48703;51.248;-0.546;2023-07-09T07:53:40;101296;;;18.11;78.63
62632;BME280;48703;51.248;-0.546;2023-07-09T07:56:42;101303;;;18.17;78.60
62632;BME280;48703;51.248;-0.546;2023-07-09T07:59:44;101299;;;18.29;78.28
62632;BME280;48703;51.248;-0.546;2023-07-09T08:02:46;101310;;;18.36;77.52
62632;BME280;48703;51.248;-0.546;2023-07-09T08:05:48;101295;;;18.43;77.38
62632;BME280;48703;51.248;-0.546;2023-07-09T08:08:49;101284;;;18.49;77.15
62632;BME280;48703;51.248;-0.546;2023-07-09T08:11:51;101274;;;18.54;76.78
62632;BME280;48703;51.248;-0.546;2023-07-09T08:14:53;101269;;;18.58;75.28
62632;BME280;48703;51.248;-0.546;2023-07-09T08:17:55;101264;;;18.63;73.71
62632;BME280;48703;51.248;-0.546;2023-07-09T08:20:58;101264;;;18.65;72.30
62632;BME280;48703;51.248;-0.546;2023-07-09T08:23:59;101252;;;18.65;71.41
62632;BME280;48703;51.248;-0.546;2023-07-09T08:27:01;101240;;;18.64;71.49
62632;BME280;48703;51.248;-0.546;2023-07-09T08:30:03;101266;;;18.65;72.50
62632;BME280;48703;51.248;-0.546;2023-07-09T08:33:04;101260;;;18.64;72.50
62632;BME280;48703;51.248;-0.546;2023-07-09T08:36:06;101272;;;18.67;73.49
62632;BME280;48703;51.248;-0.546;2023-07-09T08:39:08;101277;;;18.74;73.87
62632;BME280;48703;51.248;-0.546;2023-07-09T08:42:11;101267;;;18.79;72.77
62632;BME280;48703;51.248;-0.546;2023-07-09T08:45:16;101276;;;18.81;72.89
62632;BME280;48703;51.248;-0.546;2023-07-09T08:48:15;101278;;;18.82;72.75
62632;BME280;48703;51.248;-0.546;2023-07-09T08:51:17;101285;;;18.83;71.29
62632;BME280;48703;51.248;-0.546;2023-07-09T08:54:20;101300;;;18.87;71.86
62632;BME280;48703;51.248;-0.546;2023-07-09T08:57:20;101312;;;18.93;71.82
62632;BME280;48703;51.248;-0.546;2023-07-09T09:00:22;101312;;;18.92;71.02
62632;BME280;48703;51.248;-0.546;2023-07-09T09:03:27;101301;;;18.96;71.70
62632;BME280;48703;51.248;-0.546;2023-07-09T09:06:26;101307;;;18.99;71.61
62632;BME280;48703;51.248;-0.546;2023-07-09T09:09:28;101326;;;18.99;71.61
62632;BME280;48703;51.248;-0.546;2023-07-09T09:12:30;101330;;;19.00;71.11
62632;BME280;48703;51.248;-0.546;2023-07-09T09:15:31;101328;;;19.01;68.82
62632;BME280;48703;51.248;-0.546;2023-07-09T09:18:35;101301;;;19.02;67.87
62632;BME280;48703;51.248;-0.546;2023-07-09T09:21:35;101312;;;19.02;65.96
62632;BME280;48703;51.248;-0.546;2023-07-09T09:24:37;101326;;;19.02;65.77
62632;BME280;48703;51.248;-0.546;2023-07-09T09:27:38;101328;;;19.00;66.03
62632;BME280;48703;51.248;-0.546;2023-07-09T09:30:40;101330;;;19.00;66.92
62632;BME280;48703;51.248;-0.546;2023-07-09T09:33:43;101331;;;19.05;67.57
62632;BME280;48703;51.248;-0.546;2023-07-09T09:36:44;101329;;;19.10;67.19
62632;BME280;48703;51.248;-0.546;2023-07-09T09:39:46;101313;;;19.12;64.24
62632;BME280;48703;51.248;-0.546;2023-07-09T09:42:48;101313;;;19.15;65.22
62632;BME280;48703;51.248;-0.546;2023-07-09T09:45:50;101318;;;19.22;66.23
62632;BME280;48703;51.248;-0.546;2023-07-09T09:48:53;101317;;;19.28;66.45
62632;BME280;48703;51.248;-0.546;2023-07-09T09:51:53;101297;;;19.34;66.13
62632;BME280;48703;51.248;-0.546;2023-07-09T09:54:56;101298;;;19.36;66.18
62632;BME280;48703;51.248;-0.546;2023-07-09T09:57:57;101304;;;19.35;66.22
62632;BME280;48703;51.248;-0.546;2023-07-09T10:00:59;101301;;;19.37;64.97
62632;BME280;48703;51.248;-0.546;2023-07-09T10:04:01;101314;;;19.43;65.72
62632;BME280;48703;51.248;-0.546;2023-07-09T10:07:05;101308;;;19.52;65.29
62632;BME280;48703;51.248;-0.546;2023-07-09T10:10:08;101305;;;19.60;65.35
62632;BME280;48703;51.248;-0.546;2023-07-09T10:13:09;101315;;;19.62;64.61
62632;BME280;48703;51.248;-0.546;2023-07-09T10:16:09;101328;;;19.57;62.53
62632;BME280;48703;51.248;-0.546;2023-07-09T10:19:12;101333;;;19.52;62.59
62632;BME280;48703;51.248;-0.546;2023-07-09T10:22:13;101325;;;19.47;62.91
62632;BME280;48703;51.248;-0.546;2023-07-09T10:25:16;101310;;;19.43;63.56
62632;BME280;48703;51.248;-0.546;2023-07-09T10:28:19;101298;;;19.44;62.07
62632;BME280;48703;51.248;-0.546;2023-07-09T10:31:20;101303;;;19.45;64.36
62632;BME280;48703;51.248;-0.546;2023-07-09T10:34:21;101324;;;19.49;66.94
62632;BME280;48703;51.248;-0.546;2023-07-09T10:37:27;101314;;;19.52;66.76
62632;BME280;48703;51.248;-0.546;2023-07-09T10:40:25;101297;;;19.57;66.34
62632;BME280;48703;51.248;-0.546;2023-07-09T10:43:28;101297;;;19.69;68.31
62632;BME280;48703;51.248;-0.546;2023-07-09T10:46:28;101310;;;19.82;68.41
62632;BME280;48703;51.248;-0.546;2023-07-09T10:49:30;101307;;;19.98;67.76
62632;BME280;48703;51.248;-0.546;2023-07-09T10:52:32;101325;;;20.11;66.42
62632;BME280;48703;51.248;-0.546;2023-07-09T10:55:33;101325;;;20.08;65.26
62632;BME280;48703;51.248;-0.546;2023-07-09T10:58:35;101335;;;20.14;66.67
62632;BME280;48703;51.248;-0.546;2023-07-09T11:01:37;101336;;;20.23;66.29
62632;BME280;48703;51.248;-0.546;2023-07-09T11:04:40;101328;;;20.34;65.46
62632;BME280;48703;51.248;-0.546;2023-07-09T11:07:41;101330;;;20.40;63.21
62632;BME280;48703;51.248;-0.546;2023-07-09T11:10:46;101351;;;20.45;62.46
62632;BME280;48703;51.248;-0.546;2023-07-09T11:13:44;101352;;;20.50;61.65
62632;BME280;48703;51.248;-0.546;2023-07-09T11:16:45;101343;;;20.53;62.28
62632;BME280;48703;51.248;-0.546;2023-07-09T11:19:48;101342;;;20.54;62.07
62632;BME280;48703;51.248;-0.546;2023-07-09T11:22:52;101347;;;20.67;63.69
62632;BME280;48703;51.248;-0.546;2023-07-09T11:26:00;101339;;;20.80;63.69
62632;BME280;48703;51.248;-0.546;2023-07-09T11:28:53;101338;;;20.83;62.89
62632;BME280;48703;51.248;-0.546;2023-07-09T11:31:55;101327;;;20.87;63.17
62632;BME280;48703;51.248;-0.546;2023-07-09T11:35:06;101316;;;20.89;63.73
62632;BME280;48703;51.248;-0.546;2023-07-09T11:38:06;101308;;;20.95;64.64
62632;BME280;48703;51.248;-0.546;2023-07-09T11:41:00;101294;;;21.04;64.46
62632;BME280;48703;51.248;-0.546;2023-07-09T11:44:04;101286;;;21.14;64.05
62632;BME280;48703;51.248;-0.546;2023-07-09T11:47:12;101293;;;21.23;64.10
62632;BME280;48703;51.248;-0.546;2023-07-09T11:50:10;101288;;;21.27;64.47
62632;BME280;48703;51.248;-0.546;2023-07-09T11:53:15;101309;;;21.36;63.47
62632;BME280;48703;51.248;-0.546;2023-07-09T11:56:10;101316;;;21.34;63.48
62632;BME280;48703;51.248;-0.546;2023-07-09T11:59:12;101310;;;21.41;64.08
62632;BME280;48703;51.248;-0.546;2023-07-09T12:02:15;101308;;;21.47;64.36
62632;BME280;48703;51.248;-0.546;2023-07-09T12:05:17;101320;;;21.54;63.92
62632;BME280;48703;51.248;-0.546;2023-07-09T12:08:17;101321;;;21.59;64.37
62632;BME280;48703;51.248;-0.546;2023-07-09T12:11:20;101317;;;21.60;63.25
62632;BME280;48703;51.248;-0.546;2023-07-09T12:14:21;101312;;;21.63;64.28
62632;BME280;48703;51.248;-0.546;2023-07-09T12:17:25;101308;;;21.63;62.81
62632;BME280;48703;51.248;-0.546;2023-07-09T12:20:25;101311;;;21.57;61.67
62632;BME280;48703;51.248;-0.546;2023-07-09T12:23:27;101314;;;21.50;61.38
62632;BME280;48703;51.248;-0.546;2023-07-09T12:26:30;101317;;;21.46;61.66
62632;BME280;48703;51.248;-0.546;2023-07-09T12:29:31;101323;;;21.52;62.03
62632;BME280;48703;51.248;-0.546;2023-07-09T12:32:32;101322;;;21.56;61.74
62632;BME280;48703;51.248;-0.546;2023-07-09T12:35:34;101314;;;21.55;61.91
62632;BME280;48703;51.248;-0.546;2023-07-09T12:38:40;101312;;;21.58;62.19
62632;BME280;48703;51.248;-0.546;2023-07-09T12:41:38;101310;;;21.65;61.68
62632;BME280;48703;51.248;-0.546;2023-07-09T12:44:40;101316;;;21.63;62.08
62632;BME280;48703;51.248;-0.546;2023-07-09T12:47:42;101321;;;21.66;62.89
62632;BME280;48703;51.248;-0.546;2023-07-09T12:50:48;101309;;;21.81;62.94
62632;BME280;48703;51.248;-0.546;2023-07-09T12:53:46;101306;;;21.90;61.26
62632;BME280;48703;51.248;-0.546;2023-07-09T12:56:50;101311;;;21.89;61.34
62632;BME280;48703;51.248;-0.546;2023-07-09T12:59:49;101313;;;21.97;61.83
62632;BME280;48703;51.248;-0.546;2023-07-09T13:02:52;101315;;;22.09;62.28
62632;BME280;48703;51.248;-0.546;2023-07-09T13:05:54;101317;;;22.15;60.83
62632;BME280;48703;51.248;-0.546;2023-07-09T13:08:56;101312;;;22.17;59.20
62632;BME280;48703;51.248;-0.546;2023-07-09T13:11:57;101307;;;22.21;58.28
62632;BME280;48703;51.248;-0.546;2023-07-09T13:14:59;101307;;;22.20;58.20
62632;BME280;48703;51.248;-0.546;2023-07-09T13:18:01;101310;;;22.13;58.08
62632;BME280;48703;51.248;-0.546;2023-07-09T13:21:05;101309;;;22.13;58.09
62632;BME280;48703;51.248;-0.546;2023-07-09T13:24:04;101311;;;22.14;58.40
62632;BME280;48703;51.248;-0.546;2023-07-09T13:27:07;101314;;;22.10;57.68
62632;BME280;48703;51.248;-0.546;2023-07-09T13:30:09;101311;;;22.08;58.38
62632;BME280;48703;51.248;-0.546;2023-07-09T13:33:10;101312;;;22.12;58.33
62632;BME280;48703;51.248;-0.546;2023-07-09T13:36:12;101313;;;22.20;57.73
62632;BME280;48703;51.248;-0.546;2023-07-09T13:39:14;101317;;;22.25;56.96
62632;BME280;48703;51.248;-0.546;2023-07-09T13:42:16;101316;;;22.28;55.92
62632;BME280;48703;51.248;-0.546;2023-07-09T13:45:19;101314;;;22.27;56.12
62632;BME280;48703;51.248;-0.546;2023-07-09T13:48:19;101310;;;22.28;57.03
62632;BME280;48703;51.248;-0.546;2023-07-09T13:51:22;101314;;;22.24;56.85
62632;BME280;48703;51.248;-0.546;2023-07-09T13:54:24;101307;;;22.22;56.64
62632;BME280;48703;51.248;-0.546;2023-07-09T13:57:25;101304;;;22.22;57.85
62632;BME280;48703;51.248;-0.546;2023-07-09T14:00:27;101305;;;22.19;57.22
62632;BME280;48703;51.248;-0.546;2023-07-09T14:03:28;101310;;;22.08;56.32
62632;BME280;48703;51.248;-0.546;2023-07-09T14:06:30;101308;;;22.10;57.40
62632;BME280;48703;51.248;-0.546;2023-07-09T14:09:32;101310;;;22.07;56.47
62632;BME280;48703;51.248;-0.546;2023-07-09T14:12:34;101300;;;22.03;57.34
62632;BME280;48703;51.248;-0.546;2023-07-09T14:15:36;101302;;;22.01;58.05
62632;BME280;48703;51.248;-0.546;2023-07-09T14:18:38;101305;;;22.04;58.61
62632;BME280;48703;51.248;-0.546;2023-07-09T14:21:40;101305;;;22.02;57.84
62632;BME280;48703;51.248;-0.546;2023-07-09T14:24:41;101299;;;21.97;58.63
62632;BME280;48703;51.248;-0.546;2023-07-09T14:27:43;101291;;;21.91;57.37
62632;BME280;48703;51.248;-0.546;2023-07-09T14:30:46;101293;;;21.86;57.84
62632;BME280;48703;51.248;-0.546;2023-07-09T14:33:47;101289;;;21.88;57.86
62632;BME280;48703;51.248;-0.546;2023-07-09T14:36:49;101285;;;21.92;57.17
62632;BME280;48703;51.248;-0.546;2023-07-09T14:39:51;101287;;;22.08;57.72
62632;BME280;48703;51.248;-0.546;2023-07-09T14:42:53;101293;;;22.30;57.46
62632;BME280;48703;51.248;-0.546;2023-07-09T14:45:55;101305;;;22.49;57.63
62632;BME280;48703;51.248;-0.546;2023-07-09T14:48:56;101297;;;22.52;56.89
62632;BME280;48703;51.248;-0.546;2023-07-09T14:51:58;101278;;;22.60;56.94
62632;BME280;48703;51.248;-0.546;2023-07-09T14:55:01;101274;;;22.69;57.50
62632;BME280;48703;51.248;-0.546;2023-07-09T14:58:02;101277;;;22.67;57.24
62632;BME280;48703;51.248;-0.546;2023-07-09T15:01:04;101275;;;22.80;56.89
62632;BME280;48703;51.248;-0.546;2023-07-09T15:04:07;101271;;;22.97;56.94
62632;BME280;48703;51.248;-0.546;2023-07-09T15:07:08;101268;;;23.15;57.25
62632;BME280;48703;51.248;-0.546;2023-07-09T15:10:11;101258;;;23.34;55.82
62632;BME280;48703;51.248;-0.546;2023-07-09T15:13:15;101254;;;23.46;55.76
62632;BME280;48703;51.248;-0.546;2023-07-09T15:16:13;101259;;;23.60;54.68
62632;BME280;48703;51.248;-0.546;2023-07-09T15:19:16;101262;;;23.72;54.10
62632;BME280;48703;51.248;-0.546;2023-07-09T15:22:19;101252;;;23.82;54.29
62632;BME280;48703;51.248;-0.546;2023-07-09T15:25:20;101250;;;23.90;53.53
62632;BME280;48703;51.248;-0.546;2023-07-09T15:28:21;101251;;;23.94;54.26
62632;BME280;48703;51.248;-0.546;2023-07-09T15:31:23;101253;;;24.04;53.85
62632;BME280;48703;51.248;-0.546;2023-07-09T15:34:25;101257;;;24.17;54.79
62632;BME280;48703;51.248;-0.546;2023-07-09T15:37:26;101254;;;24.26;53.76
62632;BME280;48703;51.248;-0.546;2023-07-09T15:40:28;101252;;;24.27;53.30
62632;BME280;48703;51.248;-0.546;2023-07-09T15:43:30;101253;;;24.07;53.67
62632;BME280;48703;51.248;-0.546;2023-07-09T15:46:32;101251;;;23.87;53.80
62632;BME280;48703;51.248;-0.546;2023-07-09T15:49:34;101253;;;23.72;53.69
62632;BME280;48703;51.248;-0.546;2023-07-09T15:52:36;101251;;;23.59;53.56
62632;BME280;48703;51.248;-0.546;2023-07-09T15:55:38;101251;;;23.44;53.61
62632;BME280;48703;51.248;-0.546;2023-07-09T15:58:40;101248;;;23.43;54.39
62632;BME280;48703;51.248;-0.546;2023-07-09T16:01:41;101249;;;23.59;55.10
62632;BME280;48703;51.248;-0.546;2023-07-09T16:04:43;101253;;;23.85;55.60
62632;BME280;48703;51.248;-0.546;2023-07-09T16:07:45;101249;;;23.94;54.90
62632;BME280;48703;51.248;-0.546;2023-07-09T16:10:47;101256;;;23.87;54.69
62632;BME280;48703;51.248;-0.546;2023-07-09T16:13:49;101254;;;23.85;54.95